Time;durP1;ratioP1;P1;durP2;ratioP2;P2;SDS_P1;SDS_P2;PMS_P1;PMS_P2;Temp;Humidity;BMP_temperature;BMP_pressure;BME280_temperature;BME280_humidity;BME280_pressure;Samples;Min_cycle;Max_cycle;Signal;HPM_P1;HPM_P2
2023/11/03 00:01:54;;;;;;;4.68;1.75;;;8.30;99.90;;;;;;4991012;28;20053;-53
2023/11/03 00:04:20;;;;;;;3.22;1.58;;;8.40;99.90;;;;;;4989563;28;20037;-46
2023/11/03 00:06:46;;;;;;;5.25;1.50;;;8.40;99.90;;;;;;4990753;28;20366;-51
2023/11/03 00:09:14;;;;;;;4.60;1.38;;;8.50;99.90;;;;;;4990747;28;20050;-49
2023/11/03 00:11:42;;;;;;;6.93;2.63;;;8.50;99.90;;;;;;4990740;28;20815;-49
2023/11/03 00:14:07;;;;;;;5.75;1.80;;;8.50;99.90;;;;;;4990607;28;20101;-50
2023/11/03 00:16:33;;;;;;;3.00;1.80;;;8.50;99.90;;;;;;4990603;28;20473;-50
2023/11/03 00:19:00;;;;;;;7.00;1.73;;;8.50;99.90;;;;;;4990678;28;20054;-49
2023/11/03 00:21:35;;;;;;;4.22;2.20;;;8.50;99.90;;;;;;4990710;28;20030;-46
2023/11/03 00:24:01;;;;;;;8.48;1.92;;;8.50;99.90;;;;;;4990781;28;20028;-47
2023/11/03 00:26:26;;;;;;;1.95;1.58;;;8.60;99.90;;;;;;4990241;28;20053;-45
2023/11/03 00:28:52;;;;;;;4.28;1.52;;;8.50;99.90;;;;;;5005576;28;20113;-46
2023/11/03 00:31:17;;;;;;;6.97;2.05;;;8.60;99.90;;;;;;4990487;28;20031;-44
2023/11/03 00:33:44;;;;;;;6.90;2.58;;;8.60;99.90;;;;;;4990516;28;20054;-44
2023/11/03 00:36:14;;;;;;;4.82;2.03;;;8.50;99.90;;;;;;4990311;28;20027;-48
2023/11/03 00:38:42;;;;;;;18.13;10.57;;;8.60;99.90;;;;;;4990007;28;20026;-47
2023/11/03 00:41:08;;;;;;;38.13;16.55;;;8.50;99.90;;;;;;4990029;28;20338;-45
2023/11/03 00:43:34;;;;;;;9.10;2.63;;;8.50;99.90;;;;;;4990088;28;20405;-48
2023/11/03 00:46:00;;;;;;;8.98;1.77;;;8.50;99.90;;;;;;4989934;28;20018;-50
2023/11/03 00:48:26;;;;;;;7.97;2.95;;;8.50;99.90;;;;;;4988838;28;20520;-52
2023/11/03 00:50:52;;;;;;;6.70;1.70;;;8.50;99.90;;;;;;4989992;28;20084;-48
2023/11/03 00:53:18;;;;;;;3.08;1.50;;;8.50;99.90;;;;;;4990431;28;20030;-47
2023/11/03 00:55:44;;;;;;;6.82;1.73;;;8.50;99.90;;;;;;4989940;28;20045;-48
2023/11/03 00:58:10;;;;;;;6.88;1.77;;;8.50;99.90;;;;;;4990071;28;20367;-48
2023/11/03 01:00:40;;;;;;;4.97;1.40;;;8.50;99.90;;;;;;4990082;28;20057;-47
2023/11/03 01:03:07;;;;;;;5.75;1.58;;;8.50;99.90;;;;;;4989989;28;20022;-55
2023/11/03 01:05:33;;;;;;;8.00;2.25;;;8.50;99.90;;;;;;4989907;28;20411;-46
2023/11/03 01:07:59;;;;;;;5.55;1.73;;;8.60;99.90;;;;;;4989858;28;20026;-48
2023/11/03 01:10:24;;;;;;;4.70;1.50;;;8.60;99.90;;;;;;4990705;28;20030;-47
2023/11/03 01:12:50;;;;;;;5.43;1.35;;;8.60;99.90;;;;;;4988813;28;20028;-45
2023/11/03 01:15:19;;;;;;;2.33;1.02;;;8.60;99.90;;;;;;4989693;28;20030;-45
2023/11/03 01:17:49;;;;;;;8.32;2.42;;;8.60;99.90;;;;;;4989693;28;20288;-47
2023/11/03 01:20:19;;;;;;;4.85;1.65;;;8.70;99.90;;;;;;4989762;28;20029;-48
2023/11/03 01:22:48;;;;;;;4.38;1.42;;;8.60;99.90;;;;;;4989941;28;20018;-50
2023/11/03 01:25:15;;;;;;;7.63;1.73;;;8.60;99.90;;;;;;4990171;28;20523;-45
2023/11/03 01:27:42;;;;;;;2.17;1.23;;;8.60;99.90;;;;;;4989635;28;20014;-48
2023/11/03 01:30:09;;;;;;;5.43;1.48;;;8.60;99.90;;;;;;4989433;28;20018;-49
2023/11/03 01:32:35;;;;;;;3.45;1.40;;;8.60;99.90;;;;;;4989725;28;20528;-50
2023/11/03 01:35:01;;;;;;;4.70;2.08;;;8.50;99.90;;;;;;4989378;28;20034;-55
2023/11/03 01:37:26;;;;;;;5.45;1.60;;;8.60;99.90;;;;;;4989511;28;20513;-45
2023/11/03 01:39:52;;;;;;;3.80;1.65;;;8.50;99.90;;;;;;4989633;28;20117;-45
2023/11/03 01:42:17;;;;;;;3.50;1.60;;;8.40;99.90;;;;;;4988805;28;20397;-48
2023/11/03 01:44:44;;;;;;;5.70;2.20;;;8.40;99.90;;;;;;4989594;28;20034;-48
2023/11/03 01:47:10;;;;;;;3.15;1.90;;;8.30;99.90;;;;;;4989500;28;20073;-49
2023/11/03 01:49:35;;;;;;;8.38;2.42;;;8.20;99.90;;;;;;4989335;28;20037;-47
2023/11/03 01:52:01;;;;;;;5.10;1.60;;;8.20;99.90;;;;;;4988194;28;20031;-47
2023/11/03 01:54:27;;;;;;;10.10;2.72;;;8.10;99.90;;;;;;5004317;28;20492;-45
2023/11/03 01:56:53;;;;;;;6.00;1.80;;;8.20;99.90;;;;;;4989352;28;20062;-45
2023/11/03 01:59:19;;;;;;;9.02;2.88;;;8.10;99.90;;;;;;4989270;28;20401;-46
2023/11/03 02:01:48;;;;;;;6.40;2.20;;;8.10;99.90;;;;;;4989489;28;20037;-47
2023/11/03 02:04:13;;;;;;;7.70;2.58;;;8.10;99.90;;;;;;4989180;28;20084;-45
2023/11/03 02:06:39;;;;;;;3.28;1.60;;;8.20;99.90;;;;;;4989328;28;20440;-44
2023/11/03 02:09:05;;;;;;;5.75;1.65;;;8.20;99.90;;;;;;4989461;28;20084;-47
2023/11/03 02:11:31;;;;;;;7.35;1.65;;;8.20;99.90;;;;;;4989394;28;20050;-47
2023/11/03 02:13:57;;;;;;;4.75;1.73;;;8.20;99.90;;;;;;4989024;28;20037;-52
2023/11/03 02:16:24;;;;;;;6.05;1.75;;;8.30;99.90;;;;;;4988914;28;20436;-45
2023/11/03 02:18:50;;;;;;;8.32;2.30;;;8.30;99.90;;;;;;4988850;28;20084;-50
2023/11/03 02:21:16;;;;;;;10.10;2.20;;;8.30;99.90;;;;;;4989049;28;20026;-43
2023/11/03 02:23:42;;;;;;;6.60;2.22;;;8.30;99.90;;;;;;4988945;28;20038;-46
2023/11/03 02:26:07;;;;;;;3.78;1.80;;;8.30;99.90;;;;;;4988615;28;20523;-48
2023/11/03 02:28:33;;;;;;;2.92;2.00;;;8.40;99.90;;;;;;4988958;28;20037;-50
2023/11/03 02:30:58;;;;;;;4.10;1.67;;;8.40;99.90;;;;;;4988666;28;20073;-51
2023/11/03 02:33:24;;;;;;;5.30;1.83;;;8.40;99.90;;;;;;4988760;28;20042;-51
2023/11/03 02:35:49;;;;;;;5.47;1.38;;;8.40;99.90;;;;;;4988780;28;20027;-51
2023/11/03 02:38:16;;;;;;;4.20;1.75;;;8.50;99.90;;;;;;4988726;28;20069;-46
2023/11/03 02:40:46;;;;;;;7.78;2.50;;;8.50;99.90;;;;;;4988651;28;20389;-49
2023/11/03 02:43:12;;;;;;;6.70;1.73;;;8.60;99.90;;;;;;4988638;28;20036;-46
2023/11/03 02:45:38;;;;;;;7.25;2.15;;;8.50;99.90;;;;;;4988524;28;20030;-47
2023/11/03 02:48:04;;;;;;;3.25;1.52;;;8.60;99.90;;;;;;4988511;28;20041;-50
2023/11/03 02:50:30;;;;;;;9.27;1.70;;;8.60;99.90;;;;;;4988155;28;20095;-48
2023/11/03 02:52:56;;;;;;;3.92;1.50;;;8.70;99.90;;;;;;4988288;28;20432;-50
2023/11/03 02:55:21;;;;;;;8.07;2.05;;;8.60;99.90;;;;;;4991488;28;20413;-49
2023/11/03 02:57:47;;;;;;;1.92;1.40;;;8.80;99.90;;;;;;4992755;28;20075;-46
2023/11/03 03:00:13;;;;;;;5.22;1.50;;;8.80;99.90;;;;;;5008482;28;20030;-50
2023/11/03 03:02:39;;;;;;;6.22;1.65;;;8.90;99.90;;;;;;4991919;28;20093;-48
2023/11/03 03:05:05;;;;;;;5.10;1.63;;;8.90;99.90;;;;;;4991689;28;20164;-48
2023/11/03 03:07:31;;;;;;;5.78;1.70;;;8.90;99.90;;;;;;4991664;28;20566;-50
2023/11/03 03:09:57;;;;;;;4.75;1.77;;;8.80;99.90;;;;;;4991804;28;20027;-48
2023/11/03 03:12:22;;;;;;;5.05;2.15;;;8.90;99.90;;;;;;4991550;28;20489;-50
2023/11/03 03:14:48;;;;;;;7.50;2.05;;;8.90;99.90;;;;;;4991671;28;20057;-45
2023/11/03 03:17:13;;;;;;;6.80;1.67;;;8.90;99.90;;;;;;5006669;28;20159;-46
2023/11/03 03:19:39;;;;;;;2.50;1.92;;;9.00;99.90;;;;;;4991918;28;20018;-51
2023/11/03 03:22:04;;;;;;;7.03;2.05;;;9.00;99.90;;;;;;4991577;28;20038;-45
2023/11/03 03:24:30;;;;;;;5.30;1.70;;;9.00;99.90;;;;;;4991265;28;20031;-43
2023/11/03 03:26:55;;;;;;;5.18;1.63;;;9.00;99.90;;;;;;4991640;28;20035;-46
2023/11/03 03:29:22;;;;;;;7.38;2.33;;;9.00;99.90;;;;;;4991628;28;20035;-47
2023/11/03 03:31:47;;;;;;;7.38;2.15;;;9.00;99.90;;;;;;4991449;28;20026;-49
2023/11/03 03:34:13;;;;;;;8.13;1.60;;;9.10;99.90;;;;;;4991432;28;20056;-49
2023/11/03 03:36:38;;;;;;;3.83;1.35;;;9.10;99.90;;;;;;4991044;28;20030;-48
2023/11/03 03:39:04;;;;;;;2.75;1.77;;;9.10;99.90;;;;;;4991268;28;20026;-47
2023/11/03 03:41:30;;;;;;;8.25;2.28;;;9.10;99.90;;;;;;4991237;28;20097;-47
2023/11/03 03:43:55;;;;;;;6.72;1.40;;;9.20;99.90;;;;;;4990051;28;20532;-45
2023/11/03 03:46:21;;;;;;;3.17;1.40;;;9.20;99.90;;;;;;4991163;28;20061;-52
2023/11/03 03:48:46;;;;;;;3.25;1.40;;;9.20;99.90;;;;;;4991100;28;20026;-47
2023/11/03 03:51:12;;;;;;;5.63;1.88;;;9.20;99.90;;;;;;4991102;28;20034;-47
2023/11/03 03:53:37;;;;;;;7.60;1.50;;;9.30;99.90;;;;;;4991040;28;20022;-49
2023/11/03 03:56:03;;;;;;;5.55;1.35;;;9.20;99.90;;;;;;4990890;28;20037;-50
2023/11/03 03:58:28;;;;;;;4.35;1.50;;;9.20;99.90;;;;;;4992068;28;20025;-45
2023/11/03 04:00:54;;;;;;;5.32;1.60;;;9.20;99.90;;;;;;5008056;28;20031;-46
2023/11/03 04:03:19;;;;;;;5.28;1.50;;;9.20;99.90;;;;;;4992915;28;20046;-46
2023/11/03 04:05:45;;;;;;;6.25;1.58;;;9.30;99.90;;;;;;4991546;28;20037;-46
2023/11/03 04:08:10;;;;;;;5.05;1.55;;;9.20;99.90;;;;;;4990496;28;20054;-49
2023/11/03 04:10:36;;;;;;;6.85;1.35;;;9.20;99.90;;;;;;4989663;28;20034;-45
2023/11/03 04:13:01;;;;;;;4.15;1.40;;;9.30;99.90;;;;;;4991370;28;20034;-45
2023/11/03 04:15:27;;;;;;;4.82;2.10;;;9.20;99.90;;;;;;4991208;28;20037;-47
2023/11/03 04:17:53;;;;;;;6.07;1.55;;;9.20;99.90;;;;;;4990906;28;20057;-45
2023/11/03 04:20:18;;;;;;;3.75;1.10;;;9.30;99.90;;;;;;4990426;28;20485;-45
2023/11/03 04:22:44;;;;;;;4.45;1.30;;;9.30;99.90;;;;;;4990670;28;20033;-46
2023/11/03 04:25:10;;;;;;;3.70;1.50;;;9.30;99.90;;;;;;4988923;28;20033;-45
2023/11/03 04:27:35;;;;;;;5.10;1.50;;;9.30;99.90;;;;;;4990453;28;20042;-50
2023/11/03 04:30:01;;;;;;;5.57;1.27;;;9.30;99.90;;;;;;4990396;28;20383;-45
2023/11/03 04:32:26;;;;;;;5.55;1.30;;;9.30;99.90;;;;;;4990557;28;20062;-47
2023/11/03 04:34:52;;;;;;;8.10;1.42;;;9.30;99.90;;;;;;4990523;28;20027;-44
2023/11/03 04:37:17;;;;;;;5.80;1.40;;;9.30;99.90;;;;;;4990209;28;20497;-46
2023/11/03 04:39:43;;;;;;;8.38;1.17;;;9.30;99.90;;;;;;4990283;28;20072;-46
2023/11/03 04:42:08;;;;;;;3.17;1.67;;;9.30;99.90;;;;;;4990543;28;20033;-46
2023/11/03 04:44:34;;;;;;;4.35;1.20;;;9.30;99.90;;;;;;4990747;28;20026;-52
2023/11/03 04:46:59;;;;;;;5.55;1.52;;;9.20;99.90;;;;;;4990081;28;20071;-47
2023/11/03 04:49:26;;;;;;;3.13;1.17;;;9.20;99.90;;;;;;4989871;28;20030;-45
2023/11/03 04:51:51;;;;;;;3.05;1.42;;;9.20;99.90;;;;;;4990244;28;20035;-45
2023/11/03 04:54:17;;;;;;;3.90;1.10;;;9.20;99.90;;;;;;4990118;28;20030;-45
2023/11/03 04:56:44;;;;;;;8.45;2.35;;;9.20;99.90;;;;;;4990052;28;20054;-49
2023/11/03 04:59:10;;;;;;;5.18;1.35;;;9.30;99.90;;;;;;4989939;28;20025;-47
2023/11/03 05:01:36;;;;;;;3.22;1.70;;;9.40;99.90;;;;;;4990004;28;20109;-48
2023/11/03 05:04:02;;;;;;;6.25;2.30;;;9.30;99.90;;;;;;4989985;28;20102;-47
2023/11/03 05:06:28;;;;;;;7.88;1.30;;;9.30;99.90;;;;;;4989852;28;20057;-46
2023/11/03 05:08:53;;;;;;;6.45;2.03;;;9.20;99.90;;;;;;4989957;28;20489;-47
2023/11/03 05:11:19;;;;;;;4.45;1.35;;;9.30;99.90;;;;;;4990009;28;20109;-53
2023/11/03 05:13:45;;;;;;;2.67;1.00;;;9.30;99.90;;;;;;4989804;28;20408;-51
2023/11/03 05:16:13;;;;;;;5.50;1.30;;;9.20;99.90;;;;;;4989778;28;20105;-47
2023/11/03 05:18:38;;;;;;;4.97;1.70;;;9.20;99.90;;;;;;4988690;28;20030;-48
2023/11/03 05:21:04;;;;;;;1.67;1.00;;;9.20;99.90;;;;;;5004658;28;20082;-49
2023/11/03 05:23:30;;;;;;;3.05;1.30;;;9.20;99.90;;;;;;4989653;28;20019;-48
2023/11/03 05:25:56;;;;;;;2.70;1.23;;;9.30;99.90;;;;;;4989319;28;20542;-49
2023/11/03 05:28:21;;;;;;;3.92;0.90;;;9.20;99.90;;;;;;5004844;28;20030;-49
2023/11/03 05:30:48;;;;;;;4.55;1.52;;;9.20;99.90;;;;;;4989905;28;20083;-47
2023/11/03 05:33:17;;;;;;;6.18;1.48;;;9.20;99.90;;;;;;4989382;28;20212;-47
2023/11/03 05:35:43;;;;;;;4.68;1.30;;;9.20;99.90;;;;;;4989525;28;20014;-47
2023/11/03 05:38:10;;;;;;;5.43;1.77;;;9.30;99.90;;;;;;5004973;28;20034;-49
2023/11/03 05:40:35;;;;;;;5.05;2.03;;;9.20;99.90;;;;;;4989191;28;20076;-47
2023/11/03 05:43:01;;;;;;;3.42;1.58;;;9.30;99.90;;;;;;4989369;28;20445;-46
2023/11/03 05:45:26;;;;;;;4.50;1.50;;;9.20;99.90;;;;;;4989302;28;20033;-46
2023/11/03 05:47:52;;;;;;;5.53;2.10;;;9.20;99.90;;;;;;4988054;28;20041;-47
2023/11/03 05:50:17;;;;;;;7.65;1.70;;;9.10;99.90;;;;;;4989280;28;20482;-49
2023/11/03 05:52:43;;;;;;;4.60;1.75;;;9.10;99.90;;;;;;4989246;28;20072;-45
2023/11/03 05:55:10;;;;;;;5.68;1.90;;;9.10;99.90;;;;;;4989199;28;20038;-48
2023/11/03 05:57:35;;;;;;;1.90;1.42;;;9.20;99.90;;;;;;4987845;28;20041;-49
2023/11/03 06:00:08;;;;;;;9.20;1.85;;;9.20;99.90;;;;;;4988934;28;20106;-47
2023/11/03 06:02:34;;;;;;;4.35;2.25;;;9.20;99.90;;;;;;5003535;28;20490;-46
2023/11/03 06:04:59;;;;;;;3.95;1.35;;;9.20;99.90;;;;;;4989145;28;20026;-45
2023/11/03 06:07:25;;;;;;;3.95;1.25;;;9.20;99.90;;;;;;4989102;28;20104;-49
2023/11/03 06:09:51;;;;;;;8.20;1.60;;;9.20;99.90;;;;;;4989019;28;20046;-46
2023/11/03 06:12:16;;;;;;;6.28;2.08;;;9.10;99.90;;;;;;4989015;28;20447;-44
2023/11/03 06:14:42;;;;;;;4.70;1.73;;;9.10;99.90;;;;;;4988994;28;20071;-45
2023/11/03 06:17:08;;;;;;;3.08;1.30;;;9.10;99.90;;;;;;4988846;28;20033;-47
2023/11/03 06:19:33;;;;;;;7.65;1.83;;;9.10;99.90;;;;;;4988877;28;20026;-50
2023/11/03 06:21:59;;;;;;;8.63;1.27;;;9.20;99.90;;;;;;4988946;28;20106;-44
2023/11/03 06:24:24;;;;;;;5.72;2.10;;;9.20;99.90;;;;;;4988835;28;20386;-44
2023/11/03 06:26:50;;;;;;;5.43;2.25;;;9.20;99.90;;;;;;4988393;28;20031;-48
2023/11/03 06:29:15;;;;;;;10.38;1.75;;;9.10;99.90;;;;;;4990378;28;20068;-47
2023/11/03 06:31:41;;;;;;;6.43;1.60;;;9.20;99.90;;;;;;4990966;28;20326;-46
2023/11/03 06:34:06;;;;;;;3.80;1.95;;;9.20;99.90;;;;;;4992398;28;20110;-45
2023/11/03 06:36:32;;;;;;;6.05;1.65;;;9.10;99.90;;;;;;4991886;28;20501;-46
2023/11/03 06:38:58;;;;;;;1.80;1.10;;;9.10;99.90;;;;;;4991986;28;20488;-46
2023/11/03 06:41:23;;;;;;;8.63;1.13;;;9.20;99.90;;;;;;4992025;28;20504;-46
2023/11/03 06:43:49;;;;;;;7.07;1.23;;;9.20;99.90;;;;;;4992266;28;20038;-48
2023/11/03 06:46:14;;;;;;;5.50;1.17;;;9.20;99.90;;;;;;4991816;28;20034;-49
2023/11/03 06:48:40;;;;;;;3.15;1.55;;;9.20;99.90;;;;;;4992078;28;20462;-44
2023/11/03 06:51:12;;;;;;;7.38;2.00;;;9.20;99.90;;;;;;4991895;28;20101;-45
2023/11/03 06:53:38;;;;;;;4.85;1.30;;;9.20;99.90;;;;;;4991655;28;20034;-46
2023/11/03 06:56:04;;;;;;;5.63;1.77;;;9.20;99.90;;;;;;4991618;28;20084;-46
2023/11/03 06:58:30;;;;;;;7.97;2.17;;;9.20;99.90;;;;;;4991712;28;20076;-47
2023/11/03 07:00:55;;;;;;;6.65;1.77;;;9.20;99.90;;;;;;4991715;28;20026;-44
2023/11/03 07:03:21;;;;;;;6.50;2.22;;;9.20;99.90;;;;;;4991768;28;20031;-51
2023/11/03 07:05:46;;;;;;;5.90;1.27;;;9.20;99.90;;;;;;4991570;28;20034;-47
2023/11/03 07:08:12;;;;;;;4.78;1.60;;;9.20;99.90;;;;;;4990804;28;20027;-45
2023/11/03 07:10:38;;;;;;;5.70;1.13;;;9.20;99.90;;;;;;4991754;28;20026;-47
2023/11/03 07:13:04;;;;;;;3.05;1.30;;;9.20;99.90;;;;;;4991481;28;20030;-49
2023/11/03 07:15:30;;;;;;;3.63;1.55;;;9.30;99.90;;;;;;4991392;28;20018;-46
2023/11/03 07:17:59;;;;;;;7.50;2.00;;;9.30;99.90;;;;;;4991314;28;20473;-51
2023/11/03 07:20:24;;;;;;;4.55;1.77;;;9.30;99.90;;;;;;4991111;28;20030;-45
2023/11/03 07:22:50;;;;;;;3.58;1.35;;;9.30;99.90;;;;;;4991427;28;20030;-47
2023/11/03 07:25:19;;;;;;;8.77;1.52;;;9.30;99.90;;;;;;4991201;28;20035;-48
2023/11/03 07:27:44;;;;;;;5.72;1.55;;;9.30;99.90;;;;;;4991469;28;20164;-44
2023/11/03 07:30:10;;;;;;;3.53;1.35;;;9.40;99.90;;;;;;4991212;28;20101;-49
2023/11/03 07:32:36;;;;;;;6.93;1.77;;;9.30;99.90;;;;;;4991348;28;20404;-51
2023/11/03 07:35:03;;;;;;;5.05;1.95;;;9.40;99.90;;;;;;5006375;28;20030;-45
2023/11/03 07:37:28;;;;;;;6.65;1.42;;;9.40;99.90;;;;;;4991188;28;20247;-46
2023/11/03 07:39:57;;;;;;;6.43;1.60;;;9.40;99.90;;;;;;4990668;28;20026;-45
2023/11/03 07:42:22;;;;;;;8.13;1.73;;;9.40;99.90;;;;;;5006057;28;20023;-50
2023/11/03 07:44:48;;;;;;;4.40;1.63;;;9.40;99.90;;;;;;4991223;28;20033;-45
2023/11/03 07:47:13;;;;;;;5.47;1.15;;;9.40;99.90;;;;;;4991244;28;20452;-45
2023/11/03 07:49:39;;;;;;;7.38;2.10;;;9.50;99.90;;;;;;4990910;28;20026;-48
2023/11/03 07:52:05;;;;;;;7.20;1.67;;;9.50;99.90;;;;;;4996140;28;20042;-45
2023/11/03 07:54:31;;;;;;;6.70;1.33;;;9.40;99.90;;;;;;5004443;28;20371;-51
2023/11/03 07:56:57;;;;;;;6.07;1.30;;;9.40;99.90;;;;;;5011478;28;20018;-45
2023/11/03 07:59:23;;;;;;;6.07;1.90;;;9.40;99.90;;;;;;5011654;28;20029;-46
2023/11/03 08:01:49;;;;;;;12.38;1.70;;;9.50;99.90;;;;;;5012044;28;20215;-51
2023/11/03 08:04:16;;;;;;;6.22;1.38;;;9.40;99.90;;;;;;5011626;28;20030;-52
2023/11/03 08:06:47;;;;;;;4.13;1.45;;;9.50;99.90;;;;;;5009101;28;20030;-44
2023/11/03 08:09:13;;;;;;;6.93;1.13;;;9.40;99.90;;;;;;5010380;28;20076;-46
2023/11/03 08:11:39;;;;;;;6.10;1.30;;;9.50;99.90;;;;;;5008806;28;20022;-53
2023/11/03 08:14:05;;;;;;;6.00;1.52;;;9.40;99.90;;;;;;5017095;28;20101;-51
2023/11/03 08:16:30;;;;;;;4.28;1.08;;;9.40;99.90;;;;;;5020505;28;20022;-46
2023/11/03 08:18:58;;;;;;;3.45;1.35;;;9.40;99.90;;;;;;5016865;28;20122;-47
2023/11/03 08:21:24;;;;;;;8.65;1.52;;;9.40;99.90;;;;;;5014698;28;20055;-44
2023/11/03 08:23:49;;;;;;;7.80;1.48;;;9.40;99.90;;;;;;5010939;28;20314;-47
2023/11/03 08:26:19;;;;;;;4.95;1.42;;;9.40;99.90;;;;;;5009698;28;20057;-46
2023/11/03 08:28:46;;;;;;;2.70;1.52;;;9.50;99.90;;;;;;5010465;28;20034;-44
2023/11/03 08:31:12;;;;;;;11.85;2.63;;;9.50;99.90;;;;;;5010599;28;20396;-44
2023/11/03 08:33:38;;;;;;;3.42;1.15;;;9.50;99.90;;;;;;5010348;28;20393;-43
2023/11/03 08:36:04;;;;;;;7.45;2.13;;;9.60;99.90;;;;;;5010176;28;20029;-43
2023/11/03 08:38:31;;;;;;;5.70;1.60;;;9.60;99.90;;;;;;5010452;28;20028;-46
2023/11/03 08:40:57;;;;;;;9.55;1.92;;;9.60;99.90;;;;;;5010123;28;20014;-46
2023/11/03 08:43:22;;;;;;;7.38;2.13;;;9.60;99.90;;;;;;5008103;28;20034;-44
2023/11/03 08:45:49;;;;;;;9.93;1.65;;;9.60;99.90;;;;;;5000829;28;20113;-46
2023/11/03 08:48:15;;;;;;;14.60;2.85;;;9.70;99.90;;;;;;5010074;28;20099;-49
2023/11/03 08:50:41;;;;;;;6.07;1.50;;;9.70;99.90;;;;;;5009550;28;20045;-44
2023/11/03 08:53:07;;;;;;;5.07;1.33;;;9.80;99.90;;;;;;5009924;28;20431;-42
2023/11/03 08:55:33;;;;;;;3.92;1.55;;;10.10;99.90;;;;;;5010386;28;20071;-45
2023/11/03 08:57:59;;;;;;;4.07;1.35;;;10.10;99.90;;;;;;5009195;28;20026;-44
2023/11/03 09:00:25;;;;;;;9.52;2.10;;;10.10;99.90;;;;;;5012122;28;20042;-48
2023/11/03 09:02:51;;;;;;;6.28;1.17;;;10.10;99.90;;;;;;5012043;28;20026;-44
2023/11/03 09:05:17;;;;;;;8.25;1.98;;;10.20;99.90;;;;;;5010187;28;20148;-44
2023/11/03 09:07:44;;;;;;;7.68;2.45;;;10.20;99.90;;;;;;5010444;28;20026;-49
2023/11/03 09:10:11;;;;;;;9.40;1.83;;;10.30;99.90;;;;;;5009391;28;20049;-51
2023/11/03 09:12:40;;;;;;;5.75;1.45;;;10.50;99.90;;;;;;5009833;28;20022;-49
2023/11/03 09:15:07;;;;;;;5.78;1.95;;;10.70;99.90;;;;;;5008485;28;20504;-50
2023/11/03 09:17:33;;;;;;;9.80;1.85;;;10.90;99.90;;;;;;5010990;28;20109;-45
2023/11/03 09:19:59;;;;;;;7.25;1.20;;;11.20;99.90;;;;;;5010280;28;20507;-45
2023/11/03 09:22:28;;;;;;;8.52;1.30;;;11.60;99.90;;;;;;5009846;28;20069;-47
2023/11/03 09:25:00;;;;;;;5.28;1.33;;;11.80;99.90;;;;;;5009930;28;20026;-41
2023/11/03 09:27:26;;;;;;;4.88;1.50;;;11.80;99.90;;;;;;5104370;28;20023;-51
2023/11/03 09:29:52;;;;;;;5.43;1.50;;;11.60;99.90;;;;;;5073279;28;20056;-44
2023/11/03 09:32:18;;;;;;;6.50;1.40;;;11.60;99.90;;;;;;5009498;28;20087;-52
2023/11/03 09:34:46;;;;;;;3.88;1.55;;;11.80;99.90;;;;;;5014929;28;20026;-48
2023/11/03 09:37:12;;;;;;;11.00;2.17;;;12.00;99.90;;;;;;5055945;28;20112;-44
2023/11/03 09:39:39;;;;;;;4.72;1.77;;;12.20;99.90;;;;;;5006043;28;20030;-43
2023/11/03 09:42:06;;;;;;;10.38;2.00;;;12.50;99.90;;;;;;5009330;28;20030;-44
2023/11/03 09:44:32;;;;;;;5.22;1.70;;;12.60;99.90;;;;;;5009601;28;20071;-47
2023/11/03 09:47:01;;;;;;;7.82;1.75;;;12.50;99.90;;;;;;5010046;28;20105;-44
2023/11/03 09:49:28;;;;;;;5.68;1.90;;;12.60;99.90;;;;;;5010145;28;20026;-47
2023/11/03 09:52:02;;;;;;;4.40;1.60;;;12.70;99.90;;;;;;5010777;28;20101;-49
2023/11/03 09:54:32;;;;;;;3.03;1.42;;;12.90;99.90;;;;;;5009606;28;20369;-49
2023/11/03 09:57:02;;;;;;;7.15;1.52;;;12.80;99.90;;;;;;5009482;28;20022;-47
2023/11/03 09:59:31;;;;;;;5.10;2.00;;;12.50;99.90;;;;;;5005646;28;20026;-46
2023/11/03 10:01:57;;;;;;;4.07;1.30;;;11.90;99.90;;;;;;4990553;28;20102;-46
2023/11/03 10:04:22;;;;;;;6.63;2.17;;;11.80;99.90;;;;;;5021384;28;20113;-49
2023/11/03 10:06:49;;;;;;;5.88;1.77;;;12.10;99.90;;;;;;4993619;28;20059;-46
2023/11/03 10:09:16;;;;;;;3.15;1.42;;;12.50;99.90;;;;;;5011048;28;20025;-46
2023/11/03 10:11:44;;;;;;;4.35;1.50;;;12.90;99.90;;;;;;5011637;28;20074;-48
2023/11/03 10:14:09;;;;;;;6.38;1.30;;;12.90;99.90;;;;;;5012138;28;20033;-45
2023/11/03 10:16:35;;;;;;;11.15;1.52;;;12.70;99.90;;;;;;5011460;28;20025;-49
2023/11/03 10:19:03;;;;;;;3.65;1.40;;;12.50;99.90;;;;;;4993238;28;20386;-50
2023/11/03 10:21:29;;;;;;;8.73;2.60;;;12.40;99.90;;;;;;4993499;28;20482;-47
2023/11/03 10:23:57;;;;;;;5.03;2.15;;;12.30;99.90;;;;;;4992900;28;20030;-54
2023/11/03 10:26:22;;;;;;;8.23;2.00;;;12.10;99.90;;;;;;4992917;28;20058;-51
2023/11/03 10:28:48;;;;;;;6.53;3.40;;;11.90;99.90;;;;;;4993321;28;20077;-52
2023/11/03 10:31:14;;;;;;;131.18;63.58;;;11.90;99.90;;;;;;5011857;28;20025;-44
2023/11/03 10:33:41;;;;;;;3.67;1.17;;;11.80;99.90;;;;;;5011683;28;20053;-51
2023/11/03 10:36:08;;;;;;;3.30;1.25;;;11.80;99.90;;;;;;5051413;28;20023;-51
2023/11/03 10:38:33;;;;;;;4.85;1.20;;;11.70;99.90;;;;;;5115615;28;20040;-48
2023/11/03 10:41:04;;;;;;;4.20;1.25;;;11.50;99.90;;;;;;5034357;28;20076;-49
2023/11/03 10:43:37;;;;;;;1.88;1.08;;;11.50;99.90;;;;;;5008775;28;20030;-47
2023/11/03 10:46:14;;;;;;;4.18;1.50;;;11.40;99.90;;;;;;5009917;28;20076;-47
2023/11/03 10:48:44;;;;;;;7.07;1.92;;;11.30;99.90;;;;;;5009557;28;20061;-50
2023/11/03 10:51:28;;;;;;;5.03;1.42;;;11.30;99.90;;;;;;5011180;28;20114;-47
2023/11/03 10:54:15;;;;;;;2.05;1.05;;;11.20;99.90;;;;;;5011108;28;20034;-50
2023/11/03 10:56:42;;;;;;;3.65;1.52;;;11.20;99.90;;;;;;5011134;28;20021;-51
2023/11/03 10:59:09;;;;;;;2.33;1.33;;;11.20;99.90;;;;;;5011342;28;20066;-52
2023/11/03 11:01:37;;;;;;;5.32;1.63;;;11.20;99.90;;;;;;5011698;28;20029;-49
2023/11/03 11:04:12;;;;;;;5.65;1.88;;;11.30;99.90;;;;;;5011660;28;20514;-48
2023/11/03 11:06:47;;;;;;;7.05;1.92;;;11.40;99.90;;;;;;4995037;28;20075;-49
2023/11/03 11:09:23;;;;;;;7.03;1.20;;;11.50;99.90;;;;;;4991941;28;20058;-48
2023/11/03 11:11:49;;;;;;;6.53;1.80;;;11.60;99.90;;;;;;4991752;28;20027;-46
2023/11/03 11:14:24;;;;;;;4.05;1.55;;;11.60;99.90;;;;;;5005913;28;20045;-49
2023/11/03 11:16:58;;;;;;;8.05;1.85;;;11.60;99.90;;;;;;5010032;28;20493;-51
2023/11/03 11:19:38;;;;;;;2.28;1.20;;;11.60;99.90;;;;;;5010891;28;20269;-47
2023/11/03 11:22:08;;;;;;;1.48;1.20;;;11.70;99.90;;;;;;5011063;28;20018;-45
2023/11/03 11:24:35;;;;;;;8.50;2.05;;;11.70;99.90;;;;;;5011253;28;20495;-46
2023/11/03 11:27:30;;;;;;;6.75;1.60;;;11.60;99.90;;;;;;5010625;28;20082;-46
2023/11/03 11:30:23;;;;;;;10.53;1.83;;;11.70;99.90;;;;;;5015142;28;20065;-49
2023/11/03 11:32:50;;;;;;;7.55;1.52;;;11.60;99.90;;;;;;5005557;28;20121;-48
2023/11/03 11:35:18;;;;;;;12.07;1.95;;;11.60;99.90;;;;;;4990606;28;20034;-48
2023/11/03 11:40:18;;;;;;;5.90;1.67;;;11.70;99.90;;;;;;4986353;28;20049;-47
2023/11/03 11:42:44;;;;;;;3.97;1.48;;;11.70;99.90;;;;;;4990885;28;20026;-48
2023/11/03 11:45:20;;;;;;;6.38;1.75;;;11.80;99.90;;;;;;4990670;28;20473;-51
2023/11/03 11:47:47;;;;;;;5.18;1.50;;;11.70;99.90;;;;;;4981358;28;20030;-49
2023/11/03 11:50:15;;;;;;;12.88;5.32;;;11.80;99.90;;;;;;4971746;28;20215;-49
2023/11/03 11:52:41;;;;;;;51.08;27.17;;;11.80;99.90;;;;;;4971671;28;20027;-51
2023/11/03 11:55:09;;;;;;;53.45;27.70;;;11.80;99.90;;;;;;4971573;28;20030;-52
2023/11/03 11:57:37;;;;;;;4.05;1.75;;;11.80;99.90;;;;;;4971868;28;20076;-52
2023/11/03 12:00:04;;;;;;;3.88;1.35;;;11.90;99.90;;;;;;4974236;28;20521;-52
2023/11/03 12:02:31;;;;;;;9.68;1.33;;;11.80;99.90;;;;;;4989462;28;20067;-52
2023/11/03 12:04:57;;;;;;;3.33;1.65;;;11.90;99.90;;;;;;4989443;28;20027;-47
2023/11/03 12:07:29;;;;;;;4.40;1.17;;;12.00;99.90;;;;;;4990824;28;20523;-50
2023/11/03 12:09:56;;;;;;;12.30;2.30;;;12.00;99.90;;;;;;4987114;28;20109;-50
2023/11/03 12:12:25;;;;;;;1.85;1.33;;;12.00;99.90;;;;;;5002623;28;20035;-50
2023/11/03 12:14:51;;;;;;;8.18;1.50;;;12.10;99.90;;;;;;4972449;28;20027;-53
2023/11/03 12:17:20;;;;;;;6.32;2.25;;;12.00;99.90;;;;;;5002907;28;20046;-53
2023/11/03 12:19:47;;;;;;;5.57;1.45;;;12.00;99.90;;;;;;4982505;28;20433;-55
2023/11/03 12:22:24;;;;;;;8.07;1.77;;;11.90;99.90;;;;;;4971608;28;20075;-50
2023/11/03 12:24:53;;;;;;;5.53;1.50;;;11.90;99.90;;;;;;5005883;28;20026;-52
2023/11/03 12:27:19;;;;;;;2.13;1.85;;;12.00;99.90;;;;;;4990628;28;20515;-52
2023/11/03 12:29:45;;;;;;;3.22;1.23;;;11.90;99.90;;;;;;4990679;28;20068;-54
2023/11/03 12:32:12;;;;;;;3.78;1.00;;;11.90;99.90;;;;;;4990787;28;20058;-51
2023/11/03 12:34:40;;;;;;;7.78;1.45;;;11.90;99.90;;;;;;4989279;28;20030;-49
2023/11/03 12:37:05;;;;;;;3.63;1.20;;;11.80;99.90;;;;;;4976951;28;20097;-53
2023/11/03 12:39:46;;;;;;;8.32;1.48;;;11.80;99.90;;;;;;4970713;28;20057;-53
2023/11/03 12:42:11;;;;;;;8.15;1.50;;;11.70;99.90;;;;;;4971167;28;20375;-53
2023/11/03 12:44:55;;;;;;;6.75;1.73;;;11.80;99.90;;;;;;4971004;28;20076;-48
2023/11/03 12:47:44;;;;;;;9.20;1.50;;;11.80;99.90;;;;;;4970769;28;20102;-48
2023/11/03 12:50:28;;;;;;;4.15;1.60;;;11.70;99.90;;;;;;4970726;28;20148;-52
2023/11/03 12:52:58;;;;;;;11.18;2.25;;;11.70;99.90;;;;;;4970503;28;20023;-51
2023/11/03 12:55:28;;;;;;;7.47;1.85;;;11.80;99.90;;;;;;4970773;28;20026;-51